sensor_id;sensor_type;location;lat;lon;timestamp;P1;durP1;ratioP1;P2;durP2;ratioP2
75772;SDS011;64381;0.000;0.000;2023-03-12T00:01:43;9.90;;;5.67;;
75772;SDS011;64381;0.000;0.000;2023-03-12T00:04:09;10.63;;;6.10;;
75772;SDS011;64381;0.000;0.000;2023-03-12T00:06:34;10.70;;;6.57;;
75772;SDS011;64381;0.000;0.000;2023-03-12T00:09:01;9.57;;;5.93;;
75772;SDS011;64381;0.000;0.000;2023-03-12T00:11:26;9.57;;;5.60;;
75772;SDS011;64381;0.000;0.000;2023-03-12T00:13:52;9.25;;;5.88;;
75772;SDS011;64381;0.000;0.000;2023-03-12T00:16:20;11.88;;;6.13;;
75772;SDS011;64381;0.000;0.000;2023-03-12T00:18:49;10.30;;;5.90;;
75772;SDS011;64381;0.000;0.000;2023-03-12T00:21:15;11.70;;;6.32;;
75772;SDS011;64381;0.000;0.000;2023-03-12T00:23:41;10.02;;;5.70;;
75772;SDS011;64381;0.000;0.000;2023-03-12T00:26:07;10.67;;;5.93;;
75772;SDS011;64381;0.000;0.000;2023-03-12T00:28:34;9.82;;;5.72;;
75772;SDS011;64381;0.000;0.000;2023-03-12T00:31:01;8.87;;;5.70;;
75772;SDS011;64381;0.000;0.000;2023-03-12T00:33:27;10.57;;;6.13;;
75772;SDS011;64381;0.000;0.000;2023-03-12T00:35:53;11.27;;;6.67;;
75772;SDS011;64381;0.000;0.000;2023-03-12T00:38:19;10.32;;;6.00;;
75772;SDS011;64381;0.000;0.000;2023-03-12T00:40:45;10.13;;;5.80;;
75772;SDS011;64381;0.000;0.000;2023-03-12T00:43:11;11.23;;;5.80;;
75772;SDS011;64381;0.000;0.000;2023-03-12T00:45:36;9.97;;;5.70;;
75772;SDS011;64381;0.000;0.000;2023-03-12T00:48:01;8.30;;;5.80;;
75772;SDS011;64381;0.000;0.000;2023-03-12T00:50:26;9.80;;;5.53;;
75772;SDS011;64381;0.000;0.000;2023-03-12T00:52:51;9.37;;;5.30;;
75772;SDS011;64381;0.000;0.000;2023-03-12T00:55:17;9.70;;;5.90;;
75772;SDS011;64381;0.000;0.000;2023-03-12T00:57:42;8.63;;;5.30;;
75772;SDS011;64381;0.000;0.000;2023-03-12T01:00:08;9.83;;;5.50;;
75772;SDS011;64381;0.000;0.000;2023-03-12T01:02:35;10.05;;;5.57;;
75772;SDS011;64381;0.000;0.000;2023-03-12T01:05:01;8.55;;;5.05;;
75772;SDS011;64381;0.000;0.000;2023-03-12T01:07:27;8.57;;;5.40;;
75772;SDS011;64381;0.000;0.000;2023-03-12T01:09:52;9.63;;;5.60;;
75772;SDS011;64381;0.000;0.000;2023-03-12T01:12:17;8.03;;;5.07;;
75772;SDS011;64381;0.000;0.000;2023-03-12T01:14:43;7.73;;;4.97;;
75772;SDS011;64381;0.000;0.000;2023-03-12T01:17:08;7.43;;;5.20;;
75772;SDS011;64381;0.000;0.000;2023-03-12T01:19:33;8.68;;;5.05;;
75772;SDS011;64381;0.000;0.000;2023-03-12T01:21:59;10.47;;;5.37;;
75772;SDS011;64381;0.000;0.000;2023-03-12T01:24:25;7.75;;;4.78;;
75772;SDS011;64381;0.000;0.000;2023-03-12T01:26:50;9.03;;;4.60;;
75772;SDS011;64381;0.000;0.000;2023-03-12T01:29:15;7.27;;;4.63;;
75772;SDS011;64381;0.000;0.000;2023-03-12T01:31:40;10.90;;;5.47;;
75772;SDS011;64381;0.000;0.000;2023-03-12T01:34:06;9.07;;;5.23;;
75772;SDS011;64381;0.000;0.000;2023-03-12T01:36:33;7.68;;;4.90;;
75772;SDS011;64381;0.000;0.000;2023-03-12T01:38:59;8.17;;;5.20;;
75772;SDS011;64381;0.000;0.000;2023-03-12T01:41:24;7.80;;;4.80;;
75772;SDS011;64381;0.000;0.000;2023-03-12T01:43:52;8.23;;;4.83;;
75772;SDS011;64381;0.000;0.000;2023-03-12T01:51:48;7.07;;;4.32;;
75772;SDS011;64381;0.000;0.000;2023-03-12T01:57:01;7.93;;;4.93;;
75772;SDS011;64381;0.000;0.000;2023-03-12T01:59:30;8.90;;;4.77;;
75772;SDS011;64381;0.000;0.000;2023-03-12T02:02:01;7.90;;;5.07;;
75772;SDS011;64381;0.000;0.000;2023-03-12T02:04:27;9.68;;;4.60;;
75772;SDS011;64381;0.000;0.000;2023-03-12T02:07:08;6.68;;;4.20;;
75772;SDS011;64381;0.000;0.000;2023-03-12T02:09:37;7.85;;;4.60;;
75772;SDS011;64381;0.000;0.000;2023-03-12T02:12:06;6.47;;;4.10;;
75772;SDS011;64381;0.000;0.000;2023-03-12T02:14:32;7.50;;;4.45;;
75772;SDS011;64381;0.000;0.000;2023-03-12T02:16:58;8.67;;;4.30;;
75772;SDS011;64381;0.000;0.000;2023-03-12T02:21:58;7.47;;;4.85;;
75772;SDS011;64381;0.000;0.000;2023-03-12T02:24:32;7.07;;;4.70;;
75772;SDS011;64381;0.000;0.000;2023-03-12T02:27:04;6.78;;;4.25;;
75772;SDS011;64381;0.000;0.000;2023-03-12T02:29:31;7.30;;;4.63;;
75772;SDS011;64381;0.000;0.000;2023-03-12T02:31:58;8.17;;;4.30;;
75772;SDS011;64381;0.000;0.000;2023-03-12T02:34:25;7.00;;;4.20;;
75772;SDS011;64381;0.000;0.000;2023-03-12T02:36:51;7.20;;;3.97;;
75772;SDS011;64381;0.000;0.000;2023-03-12T02:39:16;6.60;;;4.00;;
75772;SDS011;64381;0.000;0.000;2023-03-12T02:41:42;6.83;;;4.03;;
75772;SDS011;64381;0.000;0.000;2023-03-12T02:44:17;7.03;;;4.55;;
75772;SDS011;64381;0.000;0.000;2023-03-12T02:46:46;7.03;;;4.05;;
75772;SDS011;64381;0.000;0.000;2023-03-12T02:49:17;7.20;;;4.20;;
75772;SDS011;64381;0.000;0.000;2023-03-12T02:51:44;6.72;;;4.13;;
75772;SDS011;64381;0.000;0.000;2023-03-12T02:54:11;6.43;;;3.87;;
75772;SDS011;64381;0.000;0.000;2023-03-12T02:56:37;6.53;;;4.05;;
75772;SDS011;64381;0.000;0.000;2023-03-12T02:59:04;6.28;;;3.90;;
75772;SDS011;64381;0.000;0.000;2023-03-12T03:01:30;6.80;;;4.15;;
75772;SDS011;64381;0.000;0.000;2023-03-12T03:03:55;7.03;;;4.10;;
75772;SDS011;64381;0.000;0.000;2023-03-12T03:06:21;6.17;;;4.10;;
75772;SDS011;64381;0.000;0.000;2023-03-12T03:08:46;6.87;;;3.90;;
75772;SDS011;64381;0.000;0.000;2023-03-12T03:11:11;5.93;;;3.60;;
75772;SDS011;64381;0.000;0.000;2023-03-12T03:13:37;6.90;;;3.88;;
75772;SDS011;64381;0.000;0.000;2023-03-12T03:16:02;6.40;;;3.90;;
75772;SDS011;64381;0.000;0.000;2023-03-12T03:18:28;5.63;;;3.70;;
75772;SDS011;64381;0.000;0.000;2023-03-12T03:20:55;6.27;;;3.60;;
75772;SDS011;64381;0.000;0.000;2023-03-12T03:23:21;6.28;;;3.15;;
75772;SDS011;64381;0.000;0.000;2023-03-12T03:28:18;6.15;;;3.50;;
75772;SDS011;64381;0.000;0.000;2023-03-12T03:30:44;7.15;;;3.70;;
75772;SDS011;64381;0.000;0.000;2023-03-12T03:33:10;5.20;;;3.30;;
75772;SDS011;64381;0.000;0.000;2023-03-12T03:35:35;6.97;;;3.50;;
75772;SDS011;64381;0.000;0.000;2023-03-12T03:38:00;5.90;;;3.40;;
75772;SDS011;64381;0.000;0.000;2023-03-12T03:40:26;6.05;;;3.30;;
75772;SDS011;64381;0.000;0.000;2023-03-12T03:42:51;5.73;;;3.33;;
75772;SDS011;64381;0.000;0.000;2023-03-12T03:45:16;5.97;;;3.50;;
75772;SDS011;64381;0.000;0.000;2023-03-12T03:47:42;6.10;;;3.50;;
75772;SDS011;64381;0.000;0.000;2023-03-12T03:50:07;5.60;;;3.23;;
75772;SDS011;64381;0.000;0.000;2023-03-12T03:52:33;5.25;;;3.40;;
75772;SDS011;64381;0.000;0.000;2023-03-12T03:54:58;5.77;;;3.40;;
75772;SDS011;64381;0.000;0.000;2023-03-12T03:57:24;5.67;;;3.43;;
75772;SDS011;64381;0.000;0.000;2023-03-12T03:59:49;6.57;;;3.33;;
75772;SDS011;64381;0.000;0.000;2023-03-12T04:02:15;6.30;;;3.30;;
75772;SDS011;64381;0.000;0.000;2023-03-12T04:04:40;6.07;;;3.40;;
75772;SDS011;64381;0.000;0.000;2023-03-12T04:07:05;5.30;;;3.10;;
75772;SDS011;64381;0.000;0.000;2023-03-12T04:09:30;5.17;;;3.10;;
75772;SDS011;64381;0.000;0.000;2023-03-12T04:11:56;6.33;;;3.33;;
75772;SDS011;64381;0.000;0.000;2023-03-12T04:14:21;5.63;;;3.20;;
75772;SDS011;64381;0.000;0.000;2023-03-12T04:16:46;5.07;;;2.90;;
75772;SDS011;64381;0.000;0.000;2023-03-12T04:19:11;5.83;;;2.90;;
75772;SDS011;64381;0.000;0.000;2023-03-12T04:21:37;5.23;;;2.90;;
75772;SDS011;64381;0.000;0.000;2023-03-12T04:24:02;4.70;;;2.90;;
75772;SDS011;64381;0.000;0.000;2023-03-12T04:26:27;5.47;;;3.20;;
75772;SDS011;64381;0.000;0.000;2023-03-12T04:28:52;5.13;;;2.90;;
75772;SDS011;64381;0.000;0.000;2023-03-12T04:31:18;5.53;;;2.87;;
75772;SDS011;64381;0.000;0.000;2023-03-12T04:33:43;5.33;;;2.90;;
75772;SDS011;64381;0.000;0.000;2023-03-12T04:36:08;5.37;;;3.00;;
75772;SDS011;64381;0.000;0.000;2023-03-12T04:38:34;5.90;;;3.30;;
75772;SDS011;64381;0.000;0.000;2023-03-12T04:41:03;5.35;;;3.00;;
75772;SDS011;64381;0.000;0.000;2023-03-12T04:43:31;5.00;;;2.80;;
75772;SDS011;64381;0.000;0.000;2023-03-12T04:45:56;5.27;;;2.73;;
75772;SDS011;64381;0.000;0.000;2023-03-12T04:48:22;5.30;;;2.92;;
75772;SDS011;64381;0.000;0.000;2023-03-12T04:50:48;5.05;;;3.00;;
75772;SDS011;64381;0.000;0.000;2023-03-12T04:53:14;4.63;;;2.70;;
75772;SDS011;64381;0.000;0.000;2023-03-12T04:55:39;5.33;;;3.00;;
75772;SDS011;64381;0.000;0.000;2023-03-12T04:58:04;5.37;;;2.90;;
75772;SDS011;64381;0.000;0.000;2023-03-12T05:00:30;4.77;;;2.80;;
75772;SDS011;64381;0.000;0.000;2023-03-12T05:02:55;5.30;;;2.87;;
75772;SDS011;64381;0.000;0.000;2023-03-12T05:05:20;5.00;;;2.70;;
75772;SDS011;64381;0.000;0.000;2023-03-12T05:07:45;4.87;;;2.80;;
75772;SDS011;64381;0.000;0.000;2023-03-12T05:10:11;4.33;;;2.80;;
75772;SDS011;64381;0.000;0.000;2023-03-12T05:12:36;4.53;;;2.67;;
75772;SDS011;64381;0.000;0.000;2023-03-12T05:15:01;4.87;;;2.80;;
75772;SDS011;64381;0.000;0.000;2023-03-12T05:17:27;4.60;;;2.80;;
75772;SDS011;64381;0.000;0.000;2023-03-12T05:19:52;4.93;;;2.70;;
75772;SDS011;64381;0.000;0.000;2023-03-12T05:22:17;4.50;;;2.57;;
75772;SDS011;64381;0.000;0.000;2023-03-12T05:24:42;4.80;;;2.50;;
75772;SDS011;64381;0.000;0.000;2023-03-12T05:27:08;4.40;;;2.47;;
75772;SDS011;64381;0.000;0.000;2023-03-12T05:29:33;4.97;;;2.60;;
75772;SDS011;64381;0.000;0.000;2023-03-12T05:31:58;4.77;;;2.47;;
75772;SDS011;64381;0.000;0.000;2023-03-12T05:34:24;4.50;;;2.60;;
75772;SDS011;64381;0.000;0.000;2023-03-12T05:36:49;5.53;;;2.70;;
75772;SDS011;64381;0.000;0.000;2023-03-12T05:39:14;6.00;;;2.87;;
75772;SDS011;64381;0.000;0.000;2023-03-12T05:41:39;4.70;;;2.60;;
75772;SDS011;64381;0.000;0.000;2023-03-12T05:44:05;5.20;;;2.50;;
75772;SDS011;64381;0.000;0.000;2023-03-12T05:46:30;4.80;;;2.60;;
75772;SDS011;64381;0.000;0.000;2023-03-12T05:48:55;4.63;;;2.37;;
75772;SDS011;64381;0.000;0.000;2023-03-12T05:51:20;4.60;;;2.60;;
75772;SDS011;64381;0.000;0.000;2023-03-12T05:53:46;4.03;;;2.13;;
75772;SDS011;64381;0.000;0.000;2023-03-12T05:56:12;4.28;;;2.60;;
75772;SDS011;64381;0.000;0.000;2023-03-12T05:58:39;4.50;;;2.33;;
75772;SDS011;64381;0.000;0.000;2023-03-12T06:01:12;3.92;;;2.30;;
75772;SDS011;64381;0.000;0.000;2023-03-12T06:03:39;4.05;;;2.40;;
75772;SDS011;64381;0.000;0.000;2023-03-12T06:06:04;4.13;;;2.40;;
75772;SDS011;64381;0.000;0.000;2023-03-12T06:08:30;4.63;;;2.63;;
75772;SDS011;64381;0.000;0.000;2023-03-12T06:10:55;4.47;;;2.20;;
75772;SDS011;64381;0.000;0.000;2023-03-12T06:13:20;4.27;;;2.20;;
75772;SDS011;64381;0.000;0.000;2023-03-12T06:15:46;4.18;;;2.40;;
75772;SDS011;64381;0.000;0.000;2023-03-12T06:18:12;4.07;;;2.23;;
75772;SDS011;64381;0.000;0.000;2023-03-12T06:20:37;4.10;;;2.13;;
75772;SDS011;64381;0.000;0.000;2023-03-12T06:23:02;4.00;;;2.00;;
75772;SDS011;64381;0.000;0.000;2023-03-12T06:25:28;4.10;;;2.23;;
75772;SDS011;64381;0.000;0.000;2023-03-12T06:27:53;3.90;;;2.40;;
75772;SDS011;64381;0.000;0.000;2023-03-12T06:30:18;4.23;;;2.30;;
75772;SDS011;64381;0.000;0.000;2023-03-12T06:32:43;3.70;;;2.20;;
75772;SDS011;64381;0.000;0.000;2023-03-12T06:35:09;4.20;;;2.27;;
75772;SDS011;64381;0.000;0.000;2023-03-12T06:37:34;4.73;;;2.30;;
75772;SDS011;64381;0.000;0.000;2023-03-12T06:39:59;3.83;;;2.10;;
75772;SDS011;64381;0.000;0.000;2023-03-12T06:42:24;4.07;;;2.20;;
75772;SDS011;64381;0.000;0.000;2023-03-12T06:44:50;4.20;;;2.10;;
75772;SDS011;64381;0.000;0.000;2023-03-12T06:47:15;4.57;;;2.30;;
75772;SDS011;64381;0.000;0.000;2023-03-12T06:49:40;4.03;;;2.30;;
75772;SDS011;64381;0.000;0.000;2023-03-12T06:52:06;4.10;;;2.03;;
75772;SDS011;64381;0.000;0.000;2023-03-12T06:54:31;4.17;;;2.00;;
75772;SDS011;64381;0.000;0.000;2023-03-12T06:56:56;4.43;;;2.20;;
75772;SDS011;64381;0.000;0.000;2023-03-12T06:59:21;4.33;;;2.00;;
75772;SDS011;64381;0.000;0.000;2023-03-12T07:01:47;3.30;;;1.90;;
75772;SDS011;64381;0.000;0.000;2023-03-12T07:04:13;4.03;;;2.20;;
75772;SDS011;64381;0.000;0.000;2023-03-12T07:06:38;3.70;;;2.13;;
75772;SDS011;64381;0.000;0.000;2023-03-12T07:09:03;3.77;;;2.10;;
75772;SDS011;64381;0.000;0.000;2023-03-12T07:11:29;4.07;;;1.90;;
75772;SDS011;64381;0.000;0.000;2023-03-12T07:13:54;3.70;;;1.97;;
75772;SDS011;64381;0.000;0.000;2023-03-12T07:16:19;4.37;;;2.20;;
75772;SDS011;64381;0.000;0.000;2023-03-12T07:18:45;3.80;;;2.00;;
75772;SDS011;64381;0.000;0.000;2023-03-12T07:21:10;3.40;;;1.90;;
75772;SDS011;64381;0.000;0.000;2023-03-12T07:23:36;3.80;;;1.97;;
75772;SDS011;64381;0.000;0.000;2023-03-12T07:26:02;3.77;;;2.17;;
75772;SDS011;64381;0.000;0.000;2023-03-12T07:28:29;3.10;;;1.85;;
75772;SDS011;64381;0.000;0.000;2023-03-12T07:30:58;3.50;;;1.90;;
75772;SDS011;64381;0.000;0.000;2023-03-12T07:33:27;4.15;;;1.80;;
75772;SDS011;64381;0.000;0.000;2023-03-12T07:35:52;4.80;;;1.90;;
75772;SDS011;64381;0.000;0.000;2023-03-12T07:38:18;4.13;;;1.97;;
75772;SDS011;64381;0.000;0.000;2023-03-12T07:40:43;3.35;;;1.90;;
75772;SDS011;64381;0.000;0.000;2023-03-12T07:43:08;3.50;;;1.80;;
75772;SDS011;64381;0.000;0.000;2023-03-12T07:45:34;3.77;;;2.00;;
75772;SDS011;64381;0.000;0.000;2023-03-12T07:47:59;3.83;;;2.00;;
75772;SDS011;64381;0.000;0.000;2023-03-12T07:50:24;3.67;;;1.80;;
75772;SDS011;64381;0.000;0.000;2023-03-12T07:52:49;3.60;;;1.80;;
75772;SDS011;64381;0.000;0.000;2023-03-12T07:55:15;3.40;;;1.70;;
75772;SDS011;64381;0.000;0.000;2023-03-12T07:57:40;3.80;;;1.80;;
75772;SDS011;64381;0.000;0.000;2023-03-12T08:00:05;3.50;;;1.90;;
75772;SDS011;64381;0.000;0.000;2023-03-12T08:02:32;3.40;;;1.70;;
75772;SDS011;64381;0.000;0.000;2023-03-12T08:04:58;3.63;;;1.60;;
75772;SDS011;64381;0.000;0.000;2023-03-12T08:07:23;3.50;;;1.90;;
75772;SDS011;64381;0.000;0.000;2023-03-12T08:09:49;3.43;;;1.83;;
75772;SDS011;64381;0.000;0.000;2023-03-12T08:12:14;3.50;;;1.70;;
75772;SDS011;64381;0.000;0.000;2023-03-12T08:14:39;4.23;;;1.70;;
75772;SDS011;64381;0.000;0.000;2023-03-12T08:17:04;3.53;;;1.70;;
75772;SDS011;64381;0.000;0.000;2023-03-12T08:19:30;3.27;;;1.80;;
75772;SDS011;64381;0.000;0.000;2023-03-12T08:21:55;3.40;;;1.50;;
75772;SDS011;64381;0.000;0.000;2023-03-12T08:24:22;3.63;;;1.70;;
75772;SDS011;64381;0.000;0.000;2023-03-12T08:26:50;4.60;;;1.95;;
75772;SDS011;64381;0.000;0.000;2023-03-12T08:29:16;3.17;;;1.60;;
75772;SDS011;64381;0.000;0.000;2023-03-12T08:31:43;3.43;;;1.77;;
75772;SDS011;64381;0.000;0.000;2023-03-12T08:34:08;3.10;;;1.50;;
75772;SDS011;64381;0.000;0.000;2023-03-12T08:36:34;3.63;;;1.63;;
75772;SDS011;64381;0.000;0.000;2023-03-12T08:39:00;3.60;;;1.60;;
75772;SDS011;64381;0.000;0.000;2023-03-12T08:41:25;3.38;;;1.63;;
75772;SDS011;64381;0.000;0.000;2023-03-12T08:43:52;3.07;;;1.50;;
75772;SDS011;64381;0.000;0.000;2023-03-12T08:46:17;3.70;;;1.80;;
75772;SDS011;64381;0.000;0.000;2023-03-12T08:48:43;3.27;;;1.57;;
75772;SDS011;64381;0.000;0.000;2023-03-12T08:51:08;3.27;;;1.70;;
75772;SDS011;64381;0.000;0.000;2023-03-12T08:53:34;3.87;;;1.57;;
75772;SDS011;64381;0.000;0.000;2023-03-12T08:56:00;3.80;;;1.80;;
75772;SDS011;64381;0.000;0.000;2023-03-12T08:58:26;3.10;;;1.70;;
75772;SDS011;64381;0.000;0.000;2023-03-12T09:00:54;3.45;;;1.70;;
75772;SDS011;64381;0.000;0.000;2023-03-12T09:03:21;2.93;;;1.50;;
75772;SDS011;64381;0.000;0.000;2023-03-12T09:05:47;3.10;;;1.40;;
75772;SDS011;64381;0.000;0.000;2023-03-12T09:08:13;3.25;;;1.50;;
75772;SDS011;64381;0.000;0.000;2023-03-12T09:10:39;3.17;;;1.40;;
75772;SDS011;64381;0.000;0.000;2023-03-12T09:13:05;3.07;;;1.60;;
75772;SDS011;64381;0.000;0.000;2023-03-12T09:15:31;4.28;;;1.80;;
75772;SDS011;64381;0.000;0.000;2023-03-12T09:17:57;3.27;;;1.50;;
75772;SDS011;64381;0.000;0.000;2023-03-12T09:20:22;3.30;;;1.60;;
75772;SDS011;64381;0.000;0.000;2023-03-12T09:22:48;4.00;;;1.63;;
75772;SDS011;64381;0.000;0.000;2023-03-12T09:25:13;3.13;;;1.60;;
75772;SDS011;64381;0.000;0.000;2023-03-12T09:27:39;3.00;;;1.50;;
75772;SDS011;64381;0.000;0.000;2023-03-12T09:30:07;2.90;;;1.33;;
75772;SDS011;64381;0.000;0.000;2023-03-12T09:32:34;3.28;;;1.50;;
75772;SDS011;64381;0.000;0.000;2023-03-12T09:34:59;3.23;;;1.40;;
75772;SDS011;64381;0.000;0.000;2023-03-12T09:37:25;3.00;;;1.50;;
75772;SDS011;64381;0.000;0.000;2023-03-12T09:39:51;3.22;;;1.50;;
75772;SDS011;64381;0.000;0.000;2023-03-12T09:42:24;3.17;;;1.47;;
75772;SDS011;64381;0.000;0.000;2023-03-12T09:44:53;3.50;;;1.40;;
75772;SDS011;64381;0.000;0.000;2023-03-12T09:47:26;3.30;;;1.70;;
75772;SDS011;64381;0.000;0.000;2023-03-12T09:50:14;3.15;;;1.40;;
75772;SDS011;64381;0.000;0.000;2023-03-12T09:52:50;3.10;;;1.42;;
75772;SDS011;64381;0.000;0.000;2023-03-12T09:55:21;2.87;;;1.30;;
75772;SDS011;64381;0.000;0.000;2023-03-12T09:57:49;3.95;;;1.48;;
75772;SDS011;64381;0.000;0.000;2023-03-12T10:00:16;3.17;;;1.50;;
75772;SDS011;64381;0.000;0.000;2023-03-12T10:08:18;3.03;;;1.40;;
75772;SDS011;64381;0.000;0.000;2023-03-12T10:10:53;3.42;;;1.40;;
75772;SDS011;64381;0.000;0.000;2023-03-12T10:13:36;3.00;;;1.40;;
75772;SDS011;64381;0.000;0.000;2023-03-12T10:16:07;3.00;;;1.33;;
75772;SDS011;64381;0.000;0.000;2023-03-12T10:21:18;2.70;;;1.30;;
75772;SDS011;64381;0.000;0.000;2023-03-12T10:26:52;2.95;;;1.40;;
75772;SDS011;64381;0.000;0.000;2023-03-12T10:29:22;3.03;;;1.45;;
75772;SDS011;64381;0.000;0.000;2023-03-12T10:32:04;2.80;;;1.40;;
75772;SDS011;64381;0.000;0.000;2023-03-12T10:34:32;2.87;;;1.50;;
75772;SDS011;64381;0.000;0.000;2023-03-12T10:40:10;3.30;;;1.50;;
75772;SDS011;64381;0.000;0.000;2023-03-12T10:42:39;3.25;;;1.92;;
75772;SDS011;64381;0.000;0.000;2023-03-12T10:47:36;3.20;;;1.60;;
75772;SDS011;64381;0.000;0.000;2023-03-12T10:52:38;3.38;;;1.35;;
75772;SDS011;64381;0.000;0.000;2023-03-12T10:57:44;3.20;;;1.50;;
75772;SDS011;64381;0.000;0.000;2023-03-12T11:00:15;3.10;;;1.40;;
75772;SDS011;64381;0.000;0.000;2023-03-12T11:02:43;3.25;;;1.65;;
75772;SDS011;64381;0.000;0.000;2023-03-12T11:05:20;2.85;;;1.30;;
75772;SDS011;64381;0.000;0.000;2023-03-12T11:07:47;2.90;;;1.30;;
75772;SDS011;64381;0.000;0.000;2023-03-12T11:10:15;3.20;;;1.40;;
75772;SDS011;64381;0.000;0.000;2023-03-12T11:17:54;3.45;;;1.40;;
75772;SDS011;64381;0.000;0.000;2023-03-12T11:20:42;3.13;;;1.40;;
75772;SDS011;64381;0.000;0.000;2023-03-12T11:23:12;3.07;;;1.30;;
75772;SDS011;64381;0.000;0.000;2023-03-12T11:26:09;2.85;;;1.20;;
75772;SDS011;64381;0.000;0.000;2023-03-12T11:28:40;2.87;;;1.37;;
75772;SDS011;64381;0.000;0.000;2023-03-12T11:33:59;2.95;;;1.38;;
75772;SDS011;64381;0.000;0.000;2023-03-12T11:36:34;2.97;;;1.42;;
75772;SDS011;64381;0.000;0.000;2023-03-12T11:39:10;2.88;;;1.30;;
75772;SDS011;64381;0.000;0.000;2023-03-12T11:41:44;2.80;;;1.30;;
75772;SDS011;64381;0.000;0.000;2023-03-12T11:47:26;3.10;;;1.58;;
75772;SDS011;64381;0.000;0.000;2023-03-12T11:53:05;3.00;;;1.35;;
75772;SDS011;64381;0.000;0.000;2023-03-12T11:55:46;2.67;;;1.10;;
75772;SDS011;64381;0.000;0.000;2023-03-12T11:59:17;3.17;;;1.30;;
75772;SDS011;64381;0.000;0.000;2023-03-12T12:01:47;2.80;;;1.30;;
75772;SDS011;64381;0.000;0.000;2023-03-12T12:10:45;2.67;;;1.20;;
75772;SDS011;64381;0.000;0.000;2023-03-12T12:13:25;2.80;;;1.20;;
75772;SDS011;64381;0.000;0.000;2023-03-12T12:16:06;2.80;;;1.10;;
75772;SDS011;64381;0.000;0.000;2023-03-12T12:23:52;2.83;;;1.20;;
75772;SDS011;64381;0.000;0.000;2023-03-12T12:32:10;2.88;;;1.30;;
75772;SDS011;64381;0.000;0.000;2023-03-12T12:40:21;2.83;;;1.20;;
75772;SDS011;64381;0.000;0.000;2023-03-12T12:43:03;2.88;;;1.23;;
75772;SDS011;64381;0.000;0.000;2023-03-12T12:45:38;3.13;;;1.50;;
75772;SDS011;64381;0.000;0.000;2023-03-12T12:48:06;3.13;;;1.40;;
75772;SDS011;64381;0.000;0.000;2023-03-12T12:50:37;3.00;;;1.17;;
75772;SDS011;64381;0.000;0.000;2023-03-12T12:56:14;2.78;;;1.20;;
75772;SDS011;64381;0.000;0.000;2023-03-12T12:58:44;2.80;;;1.38;;
75772;SDS011;64381;0.000;0.000;2023-03-12T13:01:26;3.28;;;1.30;;
75772;SDS011;64381;0.000;0.000;2023-03-12T13:03:51;3.00;;;1.30;;
75772;SDS011;64381;0.000;0.000;2023-03-12T13:06:26;2.70;;;1.13;;
75772;SDS011;64381;0.000;0.000;2023-03-12T13:16:31;2.67;;;1.33;;
75772;SDS011;64381;0.000;0.000;2023-03-12T13:21:40;2.63;;;1.20;;
75772;SDS011;64381;0.000;0.000;2023-03-12T13:29:46;2.95;;;1.20;;
75772;SDS011;64381;0.000;0.000;2023-03-12T13:33:02;2.97;;;1.13;;
75772;SDS011;64381;0.000;0.000;2023-03-12T13:45:58;2.72;;;1.10;;
75772;SDS011;64381;0.000;0.000;2023-03-12T13:48:24;2.80;;;1.23;;
75772;SDS011;64381;0.000;0.000;2023-03-12T13:50:57;2.57;;;1.20;;
75772;SDS011;64381;0.000;0.000;2023-03-12T13:53:26;2.50;;;1.20;;
75772;SDS011;64381;0.000;0.000;2023-03-12T13:56:16;2.78;;;1.25;;
75772;SDS011;64381;0.000;0.000;2023-03-12T13:58:46;3.58;;;1.48;;
75772;SDS011;64381;0.000;0.000;2023-03-12T14:01:18;2.80;;;1.23;;
75772;SDS011;64381;0.000;0.000;2023-03-12T14:03:46;2.88;;;1.13;;
75772;SDS011;64381;0.000;0.000;2023-03-12T14:06:17;2.50;;;1.00;;
75772;SDS011;64381;0.000;0.000;2023-03-12T14:11:33;2.83;;;1.20;;
75772;SDS011;64381;0.000;0.000;2023-03-12T14:17:01;2.90;;;1.13;;
75772;SDS011;64381;0.000;0.000;2023-03-12T14:19:28;3.20;;;1.20;;
75772;SDS011;64381;0.000;0.000;2023-03-12T14:21:55;2.60;;;1.13;;
75772;SDS011;64381;0.000;0.000;2023-03-12T14:24:27;2.88;;;1.10;;
75772;SDS011;64381;0.000;0.000;2023-03-12T14:26:56;2.55;;;1.05;;
75772;SDS011;64381;0.000;0.000;2023-03-12T14:29:35;3.17;;;1.10;;
75772;SDS011;64381;0.000;0.000;2023-03-12T14:32:03;3.17;;;1.10;;
75772;SDS011;64381;0.000;0.000;2023-03-12T14:34:32;3.03;;;1.20;;
75772;SDS011;64381;0.000;0.000;2023-03-12T14:37:21;2.60;;;1.20;;
75772;SDS011;64381;0.000;0.000;2023-03-12T14:39:56;2.95;;;1.20;;
75772;SDS011;64381;0.000;0.000;2023-03-12T14:42:28;2.60;;;1.10;;
75772;SDS011;64381;0.000;0.000;2023-03-12T14:45:18;2.92;;;1.20;;
75772;SDS011;64381;0.000;0.000;2023-03-12T14:47:45;2.78;;;1.20;;
75772;SDS011;64381;0.000;0.000;2023-03-12T14:50:23;2.50;;;1.00;;
75772;SDS011;64381;0.000;0.000;2023-03-12T14:52:50;3.03;;;1.30;;
75772;SDS011;64381;0.000;0.000;2023-03-12T14:55:18;2.53;;;1.10;;
75772;SDS011;64381;0.000;0.000;2023-03-12T14:57:46;2.58;;;1.20;;
75772;SDS011;64381;0.000;0.000;2023-03-12T15:02:54;2.75;;;1.20;;
75772;SDS011;64381;0.000;0.000;2023-03-12T15:05:22;2.65;;;1.20;;
75772;SDS011;64381;0.000;0.000;2023-03-12T15:07:49;2.63;;;1.20;;
75772;SDS011;64381;0.000;0.000;2023-03-12T15:10:22;3.03;;;1.20;;
75772;SDS011;64381;0.000;0.000;2023-03-12T15:12:50;2.67;;;1.00;;
75772;SDS011;64381;0.000;0.000;2023-03-12T15:15:26;2.42;;;1.10;;
75772;SDS011;64381;0.000;0.000;2023-03-12T15:17:57;2.63;;;1.17;;
75772;SDS011;64381;0.000;0.000;2023-03-12T15:20:22;2.87;;;1.30;;
75772;SDS011;64381;0.000;0.000;2023-03-12T15:22:50;2.60;;;1.20;;
75772;SDS011;64381;0.000;0.000;2023-03-12T15:25:26;2.70;;;1.10;;
75772;SDS011;64381;0.000;0.000;2023-03-12T15:28:07;2.70;;;1.25;;
75772;SDS011;64381;0.000;0.000;2023-03-12T15:31:03;2.60;;;1.30;;
75772;SDS011;64381;0.000;0.000;2023-03-12T15:33:33;2.78;;;1.17;;
75772;SDS011;64381;0.000;0.000;2023-03-12T15:36:17;2.60;;;1.17;;
75772;SDS011;64381;0.000;0.000;2023-03-12T15:38:48;2.90;;;1.30;;
75772;SDS011;64381;0.000;0.000;2023-03-12T15:41:20;2.75;;;0.93;;
75772;SDS011;64381;0.000;0.000;2023-03-12T15:44:11;3.20;;;1.23;;
75772;SDS011;64381;0.000;0.000;2023-03-12T15:46:43;2.78;;;1.05;;
75772;SDS011;64381;0.000;0.000;2023-03-12T15:49:22;2.70;;;1.20;;
75772;SDS011;64381;0.000;0.000;2023-03-12T15:51:57;2.50;;;1.20;;
75772;SDS011;64381;0.000;0.000;2023-03-12T15:54:29;2.45;;;1.10;;
75772;SDS011;64381;0.000;0.000;2023-03-12T15:57:10;2.60;;;1.00;;
75772;SDS011;64381;0.000;0.000;2023-03-12T15:59:43;2.50;;;1.13;;
75772;SDS011;64381;0.000;0.000;2023-03-12T16:02:08;2.70;;;1.27;;
75772;SDS011;64381;0.000;0.000;2023-03-12T16:04:35;2.53;;;1.05;;
75772;SDS011;64381;0.000;0.000;2023-03-12T16:07:00;2.80;;;1.10;;
75772;SDS011;64381;0.000;0.000;2023-03-12T16:09:26;2.30;;;0.93;;
75772;SDS011;64381;0.000;0.000;2023-03-12T16:11:55;2.60;;;1.00;;
75772;SDS011;64381;0.000;0.000;2023-03-12T16:16:48;2.60;;;1.00;;
75772;SDS011;64381;0.000;0.000;2023-03-12T16:19:15;2.70;;;1.00;;
75772;SDS011;64381;0.000;0.000;2023-03-12T16:21:42;2.83;;;1.40;;
75772;SDS011;64381;0.000;0.000;2023-03-12T16:24:08;2.50;;;1.08;;
75772;SDS011;64381;0.000;0.000;2023-03-12T16:26:34;2.50;;;1.10;;
75772;SDS011;64381;0.000;0.000;2023-03-12T16:29:00;2.85;;;1.17;;
75772;SDS011;64381;0.000;0.000;2023-03-12T16:31:26;2.60;;;1.00;;
75772;SDS011;64381;0.000;0.000;2023-03-12T16:33:51;3.00;;;1.10;;
75772;SDS011;64381;0.000;0.000;2023-03-12T16:36:17;2.50;;;1.00;;
75772;SDS011;64381;0.000;0.000;2023-03-12T16:38:42;4.10;;;1.30;;
75772;SDS011;64381;0.000;0.000;2023-03-12T16:41:12;3.00;;;1.00;;
75772;SDS011;64381;0.000;0.000;2023-03-12T16:43:39;3.45;;;1.27;;
75772;SDS011;64381;0.000;0.000;2023-03-12T16:46:07;3.00;;;0.90;;
75772;SDS011;64381;0.000;0.000;2023-03-12T16:48:33;3.95;;;1.00;;
75772;SDS011;64381;0.000;0.000;2023-03-12T16:50:58;3.03;;;1.07;;
75772;SDS011;64381;0.000;0.000;2023-03-12T16:53:23;3.20;;;1.50;;
75772;SDS011;64381;0.000;0.000;2023-03-12T16:55:52;5.68;;;1.45;;
75772;SDS011;64381;0.000;0.000;2023-03-12T16:58:20;3.60;;;1.30;;
75772;SDS011;64381;0.000;0.000;2023-03-12T17:00:46;3.87;;;1.20;;